Time;durP1;ratioP1;P1;durP2;ratioP2;P2;SDS_P1;SDS_P2;PMS_P1;PMS_P2;Temp;Humidity;BMP_temperature;BMP_pressure;BME280_temperature;BME280_humidity;BME280_pressure;Samples;Min_cycle;Max_cycle;Signal;HPM_P1;HPM_P2
2023/05/15 00:01:38;;;;;;;0.20;0.20;;;;;;;17.07;100.00;100953.88;5122049;27;20035;-52
2023/05/15 00:04:03;;;;;;;1.63;0.65;;;;;;;17.00;100.00;100953.13;5115338;27;20020;-53
2023/05/15 00:06:29;;;;;;;0.95;0.73;;;;;;;16.91;100.00;100957.13;5112426;27;20480;-51
2023/05/15 00:08:54;;;;;;;0.10;0.10;;;;;;;16.90;100.00;100961.66;5122313;27;20092;-53
2023/05/15 00:11:22;;;;;;;0.95;0.30;;;;;;;16.91;100.00;100957.97;5121700;27;20038;-52
2023/05/15 00:13:47;;;;;;;1.65;0.90;;;;;;;16.90;100.00;100953.63;5113002;27;20471;-52
2023/05/15 00:16:13;;;;;;;0.25;0.20;;;;;;;16.80;100.00;100956.00;5117538;27;20480;-51
2023/05/15 00:18:38;;;;;;;1.27;1.00;;;;;;;16.81;100.00;100954.16;5116037;27;20168;-48
2023/05/15 00:21:03;;;;;;;0.65;0.20;;;;;;;16.71;100.00;100957.28;5120833;27;20023;-53
2023/05/15 00:23:29;;;;;;;1.20;0.80;;;;;;;16.77;100.00;100962.59;5118728;27;20076;-54
2023/05/15 00:25:54;;;;;;;0.65;0.28;;;;;;;16.81;100.00;100956.84;5117398;27;20057;-52
2023/05/15 00:28:20;;;;;;;0.35;0.35;;;;;;;16.82;100.00;100961.13;5114324;27;20030;-54
2023/05/15 00:30:45;;;;;;;0.45;0.45;;;;;;;16.77;100.00;100957.25;5119076;27;20065;-51
2023/05/15 00:33:10;;;;;;;0.85;0.45;;;;;;;16.78;100.00;100958.09;5118659;27;20118;-53
2023/05/15 00:35:36;;;;;;;0.65;0.35;;;;;;;16.86;100.00;100951.63;5112235;27;20011;-53
2023/05/15 00:38:01;;;;;;;0.73;0.73;;;;;;;16.79;100.00;100955.19;5112413;27;20034;-53
2023/05/15 00:40:27;;;;;;;1.98;0.30;;;;;;;16.71;100.00;100958.09;5113257;27;20106;-50
2023/05/15 00:42:53;;;;;;;0.32;0.32;;;;;;;16.69;100.00;100954.00;5117459;27;20038;-50
2023/05/15 00:45:18;;;;;;;1.10;0.30;;;;;;;16.58;100.00;100963.59;5115831;27;20395;-52
2023/05/15 00:47:45;;;;;;;0.30;0.28;;;;;;;16.61;100.00;100955.09;5118906;27;20031;-52
2023/05/15 00:50:10;;;;;;;0.65;0.50;;;;;;;16.63;100.00;100950.38;5115468;27;20027;-51
2023/05/15 00:52:36;;;;;;;4.15;0.95;;;;;;;16.50;100.00;100945.13;5115768;27;20124;-49
2023/05/15 00:55:02;;;;;;;1.23;0.40;;;;;;;16.41;100.00;100952.59;5114798;27;20059;-53
2023/05/15 00:57:30;;;;;;;3.60;0.40;;;;;;;16.50;100.00;100953.97;5114457;27;20023;-52
2023/05/15 00:59:56;;;;;;;0.63;0.40;;;;;;;16.47;100.00;100950.88;5118556;27;20019;-49
2023/05/15 01:02:22;;;;;;;0.50;0.38;;;;;;;16.51;100.00;100950.25;5114120;27;20039;-50
2023/05/15 01:04:48;;;;;;;1.45;0.45;;;;;;;16.58;100.00;100955.56;5121778;27;20376;-49
2023/05/15 01:07:14;;;;;;;0.50;0.35;;;;;;;16.60;100.00;100960.66;5122860;27;20078;-49
2023/05/15 01:09:42;;;;;;;0.50;0.50;;;;;;;16.50;100.00;100955.84;5121569;27;20058;-53
2023/05/15 01:12:34;;;;;;;1.75;0.43;;;;;;;16.53;100.00;100960.75;5115892;27;20414;-53
2023/05/15 01:14:59;;;;;;;;;;;;;;;16.62;100.00;100962.09;5112675;27;20041;-51
2023/05/15 01:17:25;;;;;;;0.38;0.30;;;;;;;16.34;100.00;100952.66;5111641;27;19955;-52
2023/05/15 01:19:51;;;;;;;0.55;0.50;;;;;;;16.28;100.00;100960.72;5117543;27;20107;-52
2023/05/15 01:22:47;;;;;;;0.38;0.38;;;;;;;16.26;100.00;100955.59;5116653;27;20036;-50
2023/05/15 01:25:18;;;;;;;2.45;0.45;;;;;;;16.34;100.00;100963.34;5114209;27;20079;-51
2023/05/15 01:27:50;;;;;;;1.60;0.50;;;;;;;16.19;100.00;100964.72;5090762;27;20605;-52
2023/05/15 01:30:22;;;;;;;0.82;0.77;;;;;;;16.18;100.00;100958.53;5115532;27;20510;-50
2023/05/15 01:33:18;;;;;;;1.00;0.73;;;;;;;16.13;100.00;100966.38;5112649;27;20096;-52
2023/05/15 01:35:54;;;;;;;3.20;0.77;;;;;;;16.05;100.00;100970.13;5111177;27;20426;-51
2023/05/15 01:38:49;;;;;;;1.65;0.73;;;;;;;16.08;100.00;100975.06;5109428;27;20119;-50
2023/05/15 01:41:20;;;;;;;3.63;1.63;;;;;;;15.98;100.00;100973.88;5105782;27;20046;-50
2023/05/15 01:43:50;;;;;;;1.20;1.00;;;;;;;15.75;100.00;100975.25;5111405;27;20632;-49
2023/05/15 01:46:20;;;;;;;1.67;1.33;;;;;;;15.62;100.00;100969.94;5114285;27;20128;-48
2023/05/15 01:48:48;;;;;;;1.15;1.15;;;;;;;15.40;100.00;100972.06;5116529;27;20109;-51
2023/05/15 01:51:15;;;;;;;1.52;1.42;;;;;;;15.41;100.00;100963.00;5117134;27;20071;-52
2023/05/15 01:53:42;;;;;;;1.48;1.38;;;;;;;15.39;100.00;100965.09;5109563;27;20035;-51
2023/05/15 01:56:08;;;;;;;1.05;1.05;;;;;;;15.37;100.00;100972.47;5117243;27;20038;-48
2023/05/15 01:58:36;;;;;;;1.55;1.45;;;;;;;15.21;100.00;100979.09;5119817;27;20075;-51
2023/05/15 02:01:03;;;;;;;1.50;1.10;;;;;;;14.96;100.00;100977.09;5111106;27;20167;-51
2023/05/15 02:03:33;;;;;;;1.33;1.23;;;;;;;14.86;100.00;100982.03;5133130;27;20137;-53
2023/05/15 02:05:59;;;;;;;1.30;1.30;;;;;;;14.77;100.00;100988.63;5116188;27;20043;-53
2023/05/15 02:08:27;;;;;;;2.05;1.48;;;;;;;14.80;100.00;100981.00;5111205;27;20043;-54
2023/05/15 02:10:54;;;;;;;1.73;1.63;;;;;;;14.78;100.00;100990.25;5123336;27;20051;-50
2023/05/15 02:13:21;;;;;;;2.35;1.42;;;;;;;14.80;100.00;100988.19;5126331;27;20257;-55
2023/05/15 02:15:46;;;;;;;2.10;1.63;;;;;;;14.82;100.00;100991.50;5123006;27;20050;-53
2023/05/15 02:18:12;;;;;;;2.30;2.15;;;;;;;14.73;100.00;100990.88;5123713;27;20559;-53
2023/05/15 02:20:37;;;;;;;2.22;1.98;;;;;;;14.66;100.00;100991.88;5117753;27;20107;-53
2023/05/15 02:23:02;;;;;;;1.67;1.58;;;;;;;14.49;100.00;101000.28;5111874;27;20034;-53
2023/05/15 02:25:37;;;;;;;9.30;2.38;;;;;;;14.33;100.00;100995.34;5114979;27;20037;-53
2023/05/15 02:28:07;;;;;;;1.02;1.02;;;;;;;14.38;100.00;101006.22;5124433;27;20027;-53
2023/05/15 02:30:54;;;;;;;2.05;1.23;;;;;;;14.42;100.00;101007.44;5115961;27;20038;-54
2023/05/15 02:33:19;;;;;;;1.73;1.63;;;;;;;14.39;100.00;101011.34;5118755;27;20073;-52
2023/05/15 02:35:51;;;;;;;2.42;1.17;;;;;;;14.36;100.00;101011.75;5125211;27;20523;-50
2023/05/15 02:38:32;;;;;;;4.90;1.27;;;;;;;14.31;100.00;101011.53;5123839;27;20444;-49
2023/05/15 02:40:59;;;;;;;1.65;1.55;;;;;;;14.25;100.00;101012.34;5117522;27;20027;-50
2023/05/15 02:43:25;;;;;;;1.05;1.05;;;;;;;14.28;100.00;101013.81;5109663;27;20024;-53
2023/05/15 02:45:51;;;;;;;1.75;1.05;;;;;;;13.99;100.00;101023.75;5121199;27;20047;-54
2023/05/15 02:48:17;;;;;;;1.75;1.23;;;;;;;13.84;100.00;101018.59;5126014;27;20031;-52
2023/05/15 02:50:43;;;;;;;1.13;1.02;;;;;;;13.80;100.00;101022.66;5109533;27;20034;-52
2023/05/15 02:53:09;;;;;;;3.95;1.30;;;;;;;13.76;100.00;101024.09;5125457;27;20023;-53
2023/05/15 02:55:35;;;;;;;1.75;0.82;;;;;;;13.87;100.00;101025.38;5119608;27;20070;-49
2023/05/15 02:58:02;;;;;;;2.97;1.45;;;;;;;13.78;100.00;101023.88;5119051;27;20059;-49
2023/05/15 03:00:27;;;;;;;1.00;0.20;;;;;;;13.62;100.00;101028.53;5124638;27;20031;-49
2023/05/15 03:02:53;;;;;;;2.05;0.93;;;;;;;13.61;100.00;101034.06;5118297;27;20038;-53
2023/05/15 03:05:18;;;;;;;4.90;0.80;;;;;;;13.56;100.00;101031.19;5113308;27;20031;-51
2023/05/15 03:07:43;;;;;;;2.88;0.55;;;;;;;13.50;100.00;101030.09;5125904;27;20050;-50
2023/05/15 03:10:09;;;;;;;5.10;0.30;;;;;;;13.36;100.00;101033.72;5116118;27;20384;-52
2023/05/15 03:12:34;;;;;;;8.05;0.80;;;;;;;13.35;100.00;101042.75;5112278;27;20054;-50
2023/05/15 03:15:00;;;;;;;0.95;0.32;;;;;;;13.39;100.00;101041.31;5116312;27;20156;-49
2023/05/15 03:17:25;;;;;;;4.70;0.60;;;;;;;13.34;100.00;101041.91;5121619;27;20155;-47
2023/05/15 03:19:51;;;;;;;7.00;1.52;;;;;;;12.55;100.00;101050.06;5116896;27;20056;-51
2023/05/15 03:22:16;;;;;;;3.85;1.65;;;;;;;13.40;100.00;101040.28;5119432;27;20070;-50
2023/05/15 03:24:41;;;;;;;2.55;1.00;;;;;;;13.57;100.00;101046.13;5119541;27;20031;-50
2023/05/15 03:27:07;;;;;;;2.70;0.85;;;;;;;13.49;100.00;101045.25;5121906;27;20471;-49
2023/05/15 03:29:32;;;;;;;8.18;1.15;;;;;;;13.56;100.00;101037.31;5119469;27;20122;-47
2023/05/15 03:31:57;;;;;;;4.22;0.52;;;;;;;13.60;100.00;101045.72;5123046;27;20412;-49
2023/05/15 03:34:23;;;;;;;4.00;0.73;;;;;;;13.58;100.00;101051.28;5125485;27;20091;-47
2023/05/15 03:36:48;;;;;;;1.80;1.10;;;;;;;13.55;100.00;101054.31;5121052;27;20201;-48
2023/05/15 03:39:13;;;;;;;0.50;0.50;;;;;;;13.52;100.00;101054.72;5120906;27;20512;-47
2023/05/15 03:41:38;;;;;;;2.22;0.60;;;;;;;13.43;100.00;101055.91;5109092;27;20043;-46
2023/05/15 03:44:04;;;;;;;6.72;1.63;;;;;;;13.29;100.00;101053.16;5110257;27;20114;-49
2023/05/15 03:46:29;;;;;;;8.82;2.05;;;;;;;13.42;100.00;101054.22;5116091;27;20047;-50
2023/05/15 03:48:55;;;;;;;3.53;0.68;;;;;;;13.47;100.00;101051.81;5114212;27;20466;-51
2023/05/15 03:51:21;;;;;;;1.05;0.25;;;;;;;13.52;100.00;101057.38;5120810;27;20031;-51
2023/05/15 03:53:46;;;;;;;4.18;1.00;;;;;;;13.40;100.00;101056.25;5117976;27;20070;-51
2023/05/15 03:56:12;;;;;;;5.45;2.38;;;;;;;13.29;100.00;101050.50;5116603;27;20027;-51
2023/05/15 03:58:37;;;;;;;7.90;1.35;;;;;;;13.34;100.00;101046.41;5116364;27;20107;-49
2023/05/15 04:01:02;;;;;;;2.13;0.82;;;;;;;13.45;100.00;101048.50;5122163;27;20145;-48
2023/05/15 04:03:28;;;;;;;2.38;0.22;;;;;;;13.40;100.00;101046.47;5116626;27;20441;-52
2023/05/15 04:05:53;;;;;;;4.63;0.50;;;;;;;13.29;100.00;101053.16;5114929;27;20032;-52
2023/05/15 04:08:18;;;;;;;5.43;1.33;;;;;;;13.26;100.00;101056.19;5117210;27;20421;-50
2023/05/15 04:10:43;;;;;;;1.40;0.52;;;;;;;13.30;100.00;101059.28;5115246;27;20039;-49
2023/05/15 04:13:09;;;;;;;6.32;0.30;;;;;;;13.29;100.00;101054.97;5122463;27;20034;-49
2023/05/15 04:15:34;;;;;;;0.85;0.35;;;;;;;13.32;100.00;101057.28;5114142;27;20019;-50
2023/05/15 04:18:00;;;;;;;5.88;1.25;;;;;;;13.12;100.00;101054.44;5122912;27;20023;-50
2023/05/15 04:20:25;;;;;;;5.93;0.57;;;;;;;13.24;100.00;101058.22;5119770;27;20522;-47
2023/05/15 04:22:51;;;;;;;2.72;0.43;;;;;;;13.16;100.00;101060.19;5120855;27;20122;-48
2023/05/15 04:25:17;;;;;;;5.85;1.48;;;;;;;13.15;100.00;101054.03;5116681;27;20023;-50
2023/05/15 04:27:43;;;;;;;6.30;0.52;;;;;;;13.06;100.00;101060.50;5117446;27;20043;-48
2023/05/15 04:30:10;;;;;;;0.70;0.38;;;;;;;13.01;100.00;101058.44;5119322;27;20388;-50
2023/05/15 04:32:36;;;;;;;2.70;0.20;;;;;;;13.04;100.00;101058.06;5125524;27;20034;-50
2023/05/15 04:35:10;;;;;;;3.67;0.95;;;;;;;13.03;100.00;101055.56;5119983;27;20293;-51
2023/05/15 04:37:39;;;;;;;1.45;0.28;;;;;;;12.99;100.00;101057.00;5116944;27;20504;-54
2023/05/15 04:40:06;;;;;;;1.75;0.00;;;;;;;13.09;100.00;101060.97;5121640;27;20035;-52
2023/05/15 04:42:32;;;;;;;3.17;0.30;;;;;;;12.95;100.00;101067.19;5124541;27;20023;-50
2023/05/15 04:44:58;;;;;;;5.85;0.77;;;;;;;13.03;100.00;101069.69;5123311;27;20039;-53
2023/05/15 04:47:24;;;;;;;3.15;1.25;;;;;;;13.08;100.00;101077.13;5120414;27;20023;-54
2023/05/15 04:49:49;;;;;;;4.05;0.28;;;;;;;12.93;100.00;101082.50;5117294;27;20058;-48
2023/05/15 04:52:15;;;;;;;9.88;1.73;;;;;;;12.97;100.00;101086.44;5122501;27;20484;-51
2023/05/15 04:54:41;;;;;;;9.23;0.98;;;;;;;13.01;100.00;101086.88;5128341;27;20117;-50
2023/05/15 04:57:06;;;;;;;5.00;0.50;;;;;;;12.99;100.00;101092.41;5129229;27;20054;-53
2023/05/15 04:59:32;;;;;;;2.72;0.40;;;;;;;12.93;100.00;101097.66;5096360;27;20364;-52
2023/05/15 05:01:57;;;;;;;2.38;0.40;;;;;;;12.85;100.00;101093.31;5111787;27;20136;-52
2023/05/15 05:04:22;;;;;;;4.40;0.98;;;;;;;12.78;100.00;101095.09;5120483;27;20027;-48
2023/05/15 05:06:48;;;;;;;1.58;0.65;;;;;;;12.75;100.00;101101.63;5119904;27;20027;-49
2023/05/15 05:09:13;;;;;;;2.67;0.20;;;;;;;12.74;100.00;101105.28;5115232;27;20039;-51
2023/05/15 05:11:42;;;;;;;6.40;1.15;;;;;;;12.65;100.00;101109.09;5114763;27;20031;-53
2023/05/15 05:14:14;;;;;;;6.93;0.43;;;;;;;12.62;100.00;101112.09;5124713;27;20023;-52
2023/05/15 05:16:40;;;;;;;4.70;0.38;;;;;;;12.72;100.00;101117.94;5122071;27;20019;-47
2023/05/15 05:19:06;;;;;;;3.53;0.68;;;;;;;12.66;100.00;101114.22;5120199;27;20495;-52
2023/05/15 05:21:32;;;;;;;1.75;0.43;;;;;;;12.68;100.00;101119.34;5122829;27;20043;-50
2023/05/15 05:23:58;;;;;;;1.30;0.95;;;;;;;12.72;100.00;101125.94;5111783;27;20059;-53
2023/05/15 05:26:23;;;;;;;4.47;0.32;;;;;;;12.71;100.00;101126.13;5119757;27;20388;-54
2023/05/15 05:28:49;;;;;;;2.33;0.30;;;;;;;12.64;100.00;101128.72;5120996;27;20484;-50
2023/05/15 05:31:14;;;;;;;4.68;0.25;;;;;;;12.84;100.00;101119.09;5123384;27;20393;-51
2023/05/15 05:33:39;;;;;;;6.32;1.10;;;;;;;12.85;100.00;101118.06;5123197;27;20063;-52
2023/05/15 05:36:05;;;;;;;2.83;0.45;;;;;;;12.88;100.00;101117.72;5116942;27;20480;-50
2023/05/15 05:38:31;;;;;;;2.50;0.95;;;;;;;12.96;100.00;101118.56;5114062;27;20125;-50
2023/05/15 05:40:56;;;;;;;6.18;0.60;;;;;;;12.97;100.00;101118.41;5118939;27;20076;-49
2023/05/15 05:43:21;;;;;;;5.63;1.40;;;;;;;12.99;100.00;101118.22;5116219;27;20032;-49
2023/05/15 05:45:47;;;;;;;9.82;0.15;;;;;;;13.04;100.00;101124.59;5115365;27;20128;-53
2023/05/15 05:48:12;;;;;;;3.88;1.05;;;;;;;13.08;100.00;101127.69;5119602;27;20027;-53
2023/05/15 05:50:38;;;;;;;5.80;0.90;;;;;;;13.10;100.00;101142.47;5106990;27;20027;-48
2023/05/15 05:53:03;;;;;;;4.40;0.28;;;;;;;13.17;100.00;101136.41;5115293;27;20027;-50
2023/05/15 05:55:29;;;;;;;6.30;2.25;;;;;;;13.24;100.00;101143.41;5120946;27;20035;-49
2023/05/15 05:57:54;;;;;;;9.73;0.70;;;;;;;13.28;100.00;101147.38;5116006;27;20413;-51
2023/05/15 06:00:20;;;;;;;4.03;0.85;;;;;;;13.21;100.00;101140.31;5107445;27;20118;-53
2023/05/15 06:02:45;;;;;;;2.33;1.02;;;;;;;13.19;100.00;101145.84;5112494;27;20114;-50
2023/05/15 06:05:10;;;;;;;3.28;0.55;;;;;;;13.27;100.00;101140.41;5115876;27;20084;-48
2023/05/15 06:07:36;;;;;;;2.08;0.40;;;;;;;13.30;100.00;101148.00;5109887;27;20039;-47
2023/05/15 06:10:01;;;;;;;5.78;1.38;;;;;;;13.37;100.00;101149.88;5112064;27;20481;-52
2023/05/15 06:12:27;;;;;;;2.78;0.20;;;;;;;13.37;100.00;101141.88;5115536;27;20028;-51
2023/05/15 06:14:52;;;;;;;4.93;1.48;;;;;;;13.48;100.00;101149.38;5109781;27;20503;-49
2023/05/15 06:17:18;;;;;;;6.72;0.60;;;;;;;13.56;100.00;101157.22;5115032;27;20053;-55
2023/05/15 06:19:43;;;;;;;7.60;0.57;;;;;;;13.58;100.00;101152.53;5109828;27;20153;-48
2023/05/15 06:22:08;;;;;;;3.35;0.70;;;;;;;13.17;100.00;101163.03;5111243;27;20666;-53
2023/05/15 06:24:34;;;;;;;1.58;0.63;;;;;;;13.16;100.00;101151.53;5110090;27;20134;-49
2023/05/15 06:26:59;;;;;;;4.78;0.68;;;;;;;13.09;100.00;101156.00;5112864;27;20031;-58
2023/05/15 06:29:25;;;;;;;2.40;0.40;;;;;;;13.25;100.00;101157.56;5110490;27;20023;-51
2023/05/15 06:31:51;;;;;;;3.65;1.55;;;;;;;13.26;100.00;101162.69;5114377;27;20082;-50
2023/05/15 06:34:16;;;;;;;0.57;0.20;;;;;;;13.27;100.00;101155.56;5113974;27;20444;-48
2023/05/15 06:36:42;;;;;;;2.95;0.10;;;;;;;13.31;100.00;101156.81;5112288;27;20068;-49
2023/05/15 06:39:09;;;;;;;4.60;0.88;;;;;;;13.41;100.00;101165.28;5120036;27;20019;-50
2023/05/15 06:41:35;;;;;;;7.78;0.47;;;;;;;13.47;100.00;101164.50;5108410;27;20063;-49
2023/05/15 06:44:00;;;;;;;2.15;0.30;;;;;;;13.55;100.00;101166.22;5110964;27;20092;-48
2023/05/15 06:46:26;;;;;;;8.73;0.80;;;;;;;13.44;100.00;101161.41;5109395;27;20100;-51
2023/05/15 06:48:51;;;;;;;7.90;0.75;;;;;;;13.51;100.00;101172.94;5117934;27;20034;-49
2023/05/15 06:51:16;;;;;;;4.47;0.80;;;;;;;13.57;100.00;101166.03;5118727;27;20030;-48
2023/05/15 06:53:41;;;;;;;8.45;0.47;;;;;;;13.31;100.00;101173.59;5119314;27;20028;-49
2023/05/15 06:56:07;;;;;;;5.00;1.75;;;;;;;13.26;100.00;101168.03;5114460;27;20146;-50
2023/05/15 06:58:33;;;;;;;5.20;1.58;;;;;;;13.07;100.00;101174.81;5123486;27;20653;-51
2023/05/15 07:00:59;;;;;;;3.47;0.70;;;;;;;13.15;100.00;101163.19;5111900;27;20037;-49
2023/05/15 07:03:25;;;;;;;6.93;0.85;;;;;;;13.06;100.00;101167.84;5116374;27;20143;-48
2023/05/15 07:05:52;;;;;;;4.40;0.45;;;;;;;13.03;100.00;101180.69;5115520;27;20026;-48
2023/05/15 07:08:17;;;;;;;3.40;0.73;;;;;;;13.25;100.00;101174.34;5120210;27;20032;-50
2023/05/15 07:10:42;;;;;;;4.65;1.38;;;;;;;13.31;100.00;101176.28;5117166;27;20046;-52
2023/05/15 07:13:08;;;;;;;1.75;0.32;;;;;;;13.44;100.00;101164.91;5122850;27;20031;-49
2023/05/15 07:15:33;;;;;;;4.00;0.88;;;;;;;13.45;100.00;101173.72;5119491;27;20574;-47
2023/05/15 07:17:58;;;;;;;2.72;0.65;;;;;;;13.45;100.00;101187.88;5112184;27;20615;-47
2023/05/15 07:20:24;;;;;;;11.60;1.08;;;;;;;13.48;100.00;101190.16;5116539;27;20038;-48
2023/05/15 07:22:49;;;;;;;3.70;1.38;;;;;;;13.58;100.00;101192.50;5111744;27;20035;-48
2023/05/15 07:25:15;;;;;;;6.05;0.40;;;;;;;13.89;100.00;101202.75;5110631;27;20087;-48
2023/05/15 07:27:40;;;;;;;4.40;0.35;;;;;;;14.08;100.00;101201.22;5115126;27;20030;-52
2023/05/15 07:30:06;;;;;;;5.88;0.77;;;;;;;14.06;100.00;101200.59;5094396;27;20031;-49
2023/05/15 07:32:32;;;;;;;6.93;0.28;;;;;;;14.02;100.00;101198.50;5111741;27;20073;-48
2023/05/15 07:34:58;;;;;;;2.22;1.13;;;;;;;13.97;100.00;101209.78;5116990;27;20498;-49
2023/05/15 07:37:24;;;;;;;3.50;0.15;;;;;;;13.90;100.00;101203.56;5120345;27;20032;-51
2023/05/15 07:39:49;;;;;;;4.60;0.57;;;;;;;14.00;100.00;101193.38;5113459;27;20121;-50
2023/05/15 07:42:14;;;;;;;1.63;0.32;;;;;;;14.19;100.00;101203.31;5109495;27;20047;-53
2023/05/15 07:44:40;;;;;;;6.82;0.32;;;;;;;14.29;100.00;101200.28;5124395;27;20064;-49
2023/05/15 07:47:05;;;;;;;4.32;0.15;;;;;;;14.52;100.00;101204.50;5114531;27;20400;-47
2023/05/15 07:49:30;;;;;;;4.45;0.60;;;;;;;14.53;100.00;101212.34;5124041;27;20259;-49
2023/05/15 07:51:56;;;;;;;6.55;1.65;;;;;;;14.32;100.00;101207.06;5113377;27;20361;-49
2023/05/15 07:54:21;;;;;;;1.88;0.20;;;;;;;14.33;100.00;101208.75;5122624;27;20075;-47
2023/05/15 07:56:46;;;;;;;7.43;0.45;;;;;;;14.18;100.00;101207.00;5114968;27;20476;-49
2023/05/15 07:59:12;;;;;;;2.20;0.30;;;;;;;14.40;100.00;101210.41;5116380;27;20027;-53
2023/05/15 08:01:37;;;;;;;6.20;0.73;;;;;;;14.71;100.00;101213.63;5115537;27;20114;-47
2023/05/15 08:04:06;;;;;;;4.22;0.40;;;;;;;14.86;100.00;101208.94;5118381;27;20072;-52
2023/05/15 08:06:31;;;;;;;4.38;0.45;;;;;;;14.86;100.00;101208.94;5121889;27;20103;-50
2023/05/15 08:08:57;;;;;;;2.50;0.32;;;;;;;14.76;100.00;101213.84;5120479;27;20050;-53
2023/05/15 08:11:22;;;;;;;8.35;1.25;;;;;;;14.34;100.00;101227.19;5112136;27;20377;-52
2023/05/15 08:13:47;;;;;;;0.93;0.10;;;;;;;14.53;100.00;101222.19;5121584;27;20031;-48
2023/05/15 08:16:13;;;;;;;5.68;0.50;;;;;;;14.81;100.00;101206.06;5111736;27;20116;-50
2023/05/15 08:18:38;;;;;;;4.25;0.68;;;;;;;14.92;100.00;101215.31;5115785;27;20421;-51
2023/05/15 08:21:03;;;;;;;2.10;0.10;;;;;;;14.67;100.00;101215.06;5119735;27;20023;-50
2023/05/15 08:23:29;;;;;;;1.45;0.10;;;;;;;14.97;100.00;101207.53;5114797;27;20110;-49
2023/05/15 08:25:54;;;;;;;2.20;0.52;;;;;;;14.98;100.00;101210.00;5115879;27;20451;-49
2023/05/15 08:28:19;;;;;;;4.65;0.22;;;;;;;14.96;100.00;101212.06;5120087;27;20031;-47
2023/05/15 08:30:45;;;;;;;4.53;0.43;;;;;;;15.02;100.00;101213.09;5115680;27;20031;-50
2023/05/15 08:33:10;;;;;;;4.18;0.20;;;;;;;14.85;100.00;101212.66;5122005;27;20027;-47
2023/05/15 08:35:35;;;;;;;2.08;0.38;;;;;;;14.95;100.00;101213.09;5119321;27;20106;-50
2023/05/15 08:38:02;;;;;;;2.80;0.30;;;;;;;15.10;100.00;101220.09;5119274;27;20130;-49
2023/05/15 08:40:27;;;;;;;3.78;0.65;;;;;;;15.14;100.00;101224.00;5116601;27;20471;-51
2023/05/15 08:42:55;;;;;;;2.08;0.08;;;;;;;15.03;100.00;101220.91;5120843;27;20112;-48
2023/05/15 08:45:20;;;;;;;3.28;0.22;;;;;;;14.94;100.00;101227.44;5112018;27;20077;-47
2023/05/15 08:47:46;;;;;;;3.30;0.25;;;;;;;15.13;100.00;101223.19;5112568;27;20051;-51
2023/05/15 08:50:14;;;;;;;2.10;0.10;;;;;;;15.28;100.00;101214.97;5111685;27;20050;-48
2023/05/15 08:52:41;;;;;;;4.53;0.10;;;;;;;15.60;100.00;101215.22;5117383;27;20038;-49
2023/05/15 08:55:08;;;;;;;3.78;0.35;;;;;;;15.79;98.11;101217.06;5111677;27;20561;-49
2023/05/15 08:57:33;;;;;;;5.88;0.50;;;;;;;15.61;98.31;101206.16;5117701;27;20036;-49
2023/05/15 08:59:59;;;;;;;1.80;0.10;;;;;;;15.37;92.72;101205.75;5114560;27;20042;-50
2023/05/15 09:02:25;;;;;;;2.35;0.93;;;;;;;15.36;94.34;101206.78;5114406;27;20036;-49
2023/05/15 09:04:51;;;;;;;0.65;0.57;;;;;;;15.76;97.27;101206.78;5118320;27;20076;-48
2023/05/15 09:07:17;;;;;;;1.27;0.10;;;;;;;15.97;97.57;101213.75;5119602;27;20431;-53
2023/05/15 09:09:44;;;;;;;3.30;0.00;;;;;;;15.97;95.73;101212.94;5111780;27;20099;-56
2023/05/15 09:12:20;;;;;;;0.40;0.28;;;;;;;16.17;94.58;101213.72;5109353;27;20542;-47
2023/05/15 09:14:45;;;;;;;4.97;0.45;;;;;;;15.52;98.27;101204.75;5116088;27;20084;-47
2023/05/15 09:17:11;;;;;;;5.07;0.93;;;;;;;15.83;93.08;101215.63;5115737;27;20035;-48
2023/05/15 09:19:39;;;;;;;6.22;0.20;;;;;;;15.97;88.51;101212.94;5122303;27;20431;-47
2023/05/15 09:22:22;;;;;;;0.75;0.25;;;;;;;16.10;83.44;101218.25;5126253;27;20124;-48
2023/05/15 09:24:48;;;;;;;0.73;0.03;;;;;;;16.38;87.27;101217.97;5111065;27;20388;-49
2023/05/15 09:27:14;;;;;;;0.88;0.10;;;;;;;16.40;78.31;101207.06;5117090;27;20110;-50
2023/05/15 09:29:40;;;;;;;4.22;0.28;;;;;;;16.70;79.41;101210.84;5115154;27;20123;-52
2023/05/15 09:32:08;;;;;;;3.72;0.65;;;;;;;16.53;81.77;101215.03;5117819;27;20341;-51
2023/05/15 09:34:36;;;;;;;3.78;0.13;;;;;;;16.55;82.50;101218.31;5115228;27;20023;-47
2023/05/15 09:37:04;;;;;;;4.70;1.45;;;;;;;16.76;83.96;101212.66;5114448;27;20031;-49
2023/05/15 09:39:30;;;;;;;0.77;0.20;;;;;;;16.39;86.41;101211.56;5106451;27;20454;-52
2023/05/15 09:42:06;;;;;;;1.13;0.40;;;;;;;16.92;80.92;101206.00;5116699;27;20079;-47
2023/05/15 09:44:33;;;;;;;3.53;0.43;;;;;;;17.16;79.18;101209.75;5114601;27;20030;-50
2023/05/15 09:46:58;;;;;;;3.10;0.20;;;;;;;17.49;80.17;101215.91;5122669;27;20054;-50
2023/05/15 09:49:24;;;;;;;2.35;0.50;;;;;;;17.83;80.70;101206.56;5121514;27;20392;-50
2023/05/15 09:51:50;;;;;;;1.13;0.20;;;;;;;17.71;78.11;101203.78;5122693;27;20038;-51
2023/05/15 09:54:16;;;;;;;2.85;0.08;;;;;;;17.50;72.97;101206.81;5098144;27;20486;-49
2023/05/15 09:56:44;;;;;;;2.15;0.10;;;;;;;16.76;80.85;101206.50;5115183;27;20062;-49
2023/05/15 09:59:17;;;;;;;4.05;0.22;;;;;;;17.78;79.50;101203.69;5114309;27;20084;-49
2023/05/15 10:01:44;;;;;;;7.60;0.10;;;;;;;17.88;76.07;101210.22;5111349;27;20060;-49
2023/05/15 10:04:10;;;;;;;4.10;0.13;;;;;;;17.37;75.58;101213.97;5123543;27;20127;-51
2023/05/15 10:06:47;;;;;;;1.02;0.00;;;;;;;17.79;73.21;101213.41;5117076;27;20511;-49
2023/05/15 10:09:13;;;;;;;2.67;0.20;;;;;;;17.93;71.12;101209.56;5107268;27;20547;-48
2023/05/15 10:11:42;;;;;;;2.72;0.20;;;;;;;17.67;70.47;101208.72;5114252;27;20111;-53
2023/05/15 10:14:12;;;;;;;1.65;0.03;;;;;;;17.56;65.98;101201.41;5112938;27;20027;-52
2023/05/15 10:16:39;;;;;;;1.83;0.60;;;;;;;17.67;66.52;101208.72;5109669;27;20031;-49
2023/05/15 10:19:07;;;;;;;2.65;0.30;;;;;;;17.75;70.09;101215.69;5116385;27;20057;-50
2023/05/15 10:21:37;;;;;;;1.95;0.08;;;;;;;17.73;64.86;101208.91;5123136;27;20046;-50
2023/05/15 10:24:03;;;;;;;1.52;0.10;;;;;;;17.44;66.53;101224.59;5110777;27;20020;-46
2023/05/15 10:26:42;;;;;;;5.43;0.85;;;;;;;17.68;68.90;101225.63;5126704;27;20035;-50
2023/05/15 10:29:17;;;;;;;1.70;0.10;;;;;;;17.76;66.94;101216.50;5118103;27;20477;-50
2023/05/15 10:31:43;;;;;;;1.25;0.15;;;;;;;18.34;71.40;101210.75;5122312;27;20345;-51
2023/05/15 10:34:10;;;;;;;5.35;0.38;;;;;;;18.48;69.68;101220.31;5124275;27;20867;-51
2023/05/15 10:36:37;;;;;;;3.47;0.20;;;;;;;18.58;71.76;101241.25;5115870;27;20023;-49
2023/05/15 10:39:06;;;;;;;1.00;0.13;;;;;;;18.38;70.72;101225.38;5119987;27;20035;-51
2023/05/15 10:41:35;;;;;;;1.70;0.80;;;;;;;17.63;69.91;101245.09;5120587;27;20080;-54
2023/05/15 10:44:01;;;;;;;4.30;0.20;;;;;;;17.96;71.04;101235.94;5117617;27;20035;-54
2023/05/15 10:46:28;;;;;;;1.17;0.43;;;;;;;18.44;70.86;101237.91;5122446;27;20061;-49
2023/05/15 10:48:54;;;;;;;2.63;0.98;;;;;;;18.54;66.86;101242.75;5119833;27;20523;-51
2023/05/15 10:51:26;;;;;;;0.38;0.15;;;;;;;18.47;66.10;101218.66;5121507;27;20034;-48
2023/05/15 10:53:52;;;;;;;2.30;0.00;;;;;;;18.52;68.28;101223.34;5125438;27;20058;-50
2023/05/15 10:56:17;;;;;;;1.63;0.52;;;;;;;18.43;66.32;101222.84;5128593;27;20035;-48
2023/05/15 10:58:46;;;;;;;1.35;0.08;;;;;;;18.81;68.27;101237.06;5122290;27;20023;-52
2023/05/15 11:01:30;;;;;;;2.60;0.00;;;;;;;19.01;64.68;101232.25;5122447;27;20032;-49
2023/05/15 11:04:12;;;;;;;1.30;0.10;;;;;;;19.01;66.19;101244.84;5127562;27;20031;-52
2023/05/15 11:06:42;;;;;;;0.50;0.10;;;;;;;18.85;66.47;101230.19;5124039;27;20035;-52
2023/05/15 11:09:20;;;;;;;2.70;0.70;;;;;;;18.72;62.08;101241.91;5120564;27;20448;-48
2023/05/15 11:11:55;;;;;;;1.85;0.60;;;;;;;18.66;64.59;101237.44;5115022;27;20023;-49
2023/05/15 11:14:23;;;;;;;2.83;0.35;;;;;;;19.02;66.19;101238.44;5119648;27;20031;-52
2023/05/15 11:16:54;;;;;;;1.75;0.38;;;;;;;19.37;64.52;101233.97;5117836;27;20565;-49
2023/05/15 11:19:23;;;;;;;3.30;0.57;;;;;;;19.93;65.20;101233.66;5120735;27;20054;-51